Terminal Aerodrome Forecast
Issued by NWS

Home | Current Version | Previous Version | Graphics & Text | Print | Product List | Glossary On
Versions: 1 2 3 4 5 6 7 8 9 10 11 12 13 14
000
FTUS43 KABR 040500
TAFMBG
TAF
KMBG 040533Z 0406/0506 25005KT P6SM SKC
      TEMPO 0407/0410 P6SM -SN BKN040
     FM041500 33014G23KT P6SM BKN035
     FM050100 VRB03KT P6SM SKC=

USA.gov is the U.S. government's official web portal to all federal, state and local government web resources and services.